TimePDT,TemperatureF,Dew PointF,Humidity,Sea Level PressureIn,VisibilityMPH,Wind Direction,Wind SpeedMPH,Gust SpeedMPH,PrecipitationIn,Events,Conditions,WindDirDegrees,DateUTC
12:55 AM,57.2,39.2,51,29.85,10.0,North,-9999.0,-,N/A,,Mostly Cloudy,0,2012-10-22 07:55:00
1:15 AM,57.2,41.0,55,29.86,10.0,North,-9999.0,-,N/A,,Scattered Clouds,0,2012-10-22 08:15:00
1:55 AM,57.2,41.0,55,29.86,10.0,NW,9.2,-,N/A,,Partly Cloudy,320,2012-10-22 08:55:00
2:55 AM,57.2,42.8,59,29.86,10.0,North,-9999.0,-,N/A,,Mostly Cloudy,0,2012-10-22 09:55:00
3:15 AM,57.2,42.8,59,29.86,10.0,NNW,4.6,-,N/A,,Scattered Clouds,330,2012-10-22 10:15:00
3:35 AM,57.2,42.8,59,29.86,10.0,NNW,8.1,-,N/A,,Mostly Cloudy,340,2012-10-22 10:35:00
4:15 AM,55.4,44.6,67,29.84,10.0,North,-9999.0,-,N/A,,Overcast,0,2012-10-22 11:15:00
4:35 AM,55.4,46.4,72,29.83,10.0,North,-9999.0,-,N/A,,Overcast,0,2012-10-22 11:35:00
5:15 AM,55.4,48.2,77,29.84,10.0,NW,3.5,-,N/A,,Overcast,310,2012-10-22 12:15:00
5:35 AM,53.6,48.2,82,29.84,10.0,WNW,4.6,-,N/A,,Overcast,300,2012-10-22 12:35:00
6:45 AM,53.6,53.6,100,29.83,10.0,Calm,Calm,-,N/A,,Overcast,0,2012-10-22 13:45:00
7:45 AM,53.6,53.6,100,29.83,10.0,SE,11.5,-,N/A,,Overcast,130,2012-10-22 14:45:00
8:45 AM,55.4,53.6,94,29.85,10.0,SE,16.1,18.4,N/A,,Overcast,140,2012-10-22 15:45:00
9:45 AM,60.8,46.4,59,29.86,10.0,South,18.4,25.3,N/A,,Overcast,170,2012-10-22 16:45:00
10:45 AM,60.8,42.8,52,29.88,10.0,SSE,28.8,40.3,N/A,,Overcast,160,2012-10-22 17:45:00
11:45 AM,60.8,42.8,52,29.88,10.0,SE,28.8,43.7,N/A,,Overcast,130,2012-10-22 18:45:00
12:45 PM,60.8,46.4,59,29.88,10.0,SSE,34.5,43.7,N/A,,Overcast,150,2012-10-22 19:45:00
1:45 PM,57.2,53.6,88,29.90,7.0,SSE,8.1,-,N/A,,Overcast,160,2012-10-22 20:45:00
2:45 PM,55.4,55.4,100,29.90,7.0,SE,6.9,-,N/A,,Overcast,140,2012-10-22 21:45:00
3:45 PM,60.8,59.0,94,29.96,7.0,SSE,16.1,-,N/A,,Mostly Cloudy,150,2012-10-22 22:45:00
4:45 PM,62.6,57.2,82,29.89,7.0,SSE,11.5,-,N/A,,Mostly Cloudy,150,2012-10-22 23:45:00
5:45 PM,60.8,55.4,82,29.90,7.0,SSE,6.9,-,N/A,,Mostly Cloudy,160,2012-10-23 00:45:00
6:45 PM,55.4,55.4,100,29.91,10.0,Variable,3.5,-,N/A,,Scattered Clouds,0,2012-10-23 01:45:00
7:45 PM,53.6,53.6,100,29.93,10.0,Variable,3.5,-,N/A,,Partly Cloudy,0,2012-10-23 02:45:00
8:45 PM,51.8,51.8,100,29.94,10.0,Variable,3.5,-,N/A,,Clear,0,2012-10-23 03:45:00
9:15 PM,53.6,53.6,100,29.95,10.0,SW,8.1,-,N/A,,Clear,220,2012-10-23 04:15:00
9:35 PM,53.6,53.6,100,29.95,10.0,SSW,9.2,-,N/A,,Partly Cloudy,210,2012-10-23 04:35:00
9:55 PM,53.6,53.6,100,29.95,10.0,South,6.9,-,N/A,,Clear,190,2012-10-23 04:55:00
10:35 PM,50.0,50.0,100,29.96,10.0,South,6.9,-,N/A,,Partly Cloudy,180,2012-10-23 05:35:00
11:15 PM,51.8,51.8,100,29.97,10.0,South,6.9,-,N/A,,Mostly Cloudy,170,2012-10-23 06:15:00
11:55 PM,51.8,51.8,100,29.98,10.0,SSE,5.8,-,N/A,,Mostly Cloudy,150,2012-10-23 06:55:00